createdAt,value
2023-04-15T00:01:04.003Z,4.82
2023-04-15T00:03:30.873Z,4.18
2023-04-15T00:06:00.520Z,4.45
2023-04-15T00:08:27.404Z,3.67
2023-04-15T00:10:54.167Z,4.78
2023-04-15T00:13:20.795Z,5.65
2023-04-15T00:15:48.053Z,4.28
2023-04-15T00:18:14.752Z,3.72
2023-04-15T00:20:41.593Z,4.03
2023-04-15T00:23:08.600Z,3.80
2023-04-15T00:25:36.030Z,4.38
2023-04-15T00:28:02.709Z,3.90
2023-04-15T00:30:29.333Z,3.20
2023-04-15T00:32:56.783Z,3.13
2023-04-15T00:35:24.555Z,3.47
2023-04-15T00:37:52.654Z,2.60
2023-04-15T00:40:20.076Z,2.45
2023-04-15T00:42:47.227Z,3.40
2023-04-15T00:45:14.104Z,3.92
2023-04-15T00:47:42.234Z,7.03
2023-04-15T00:50:09.823Z,7.43
2023-04-15T00:52:37.131Z,5.97
2023-04-15T00:55:04.704Z,5.35
2023-04-15T00:57:31.744Z,6.18
2023-04-15T00:59:58.500Z,6.22
2023-04-15T01:02:25.337Z,6.00
2023-04-15T01:04:52.450Z,7.70
2023-04-15T01:07:19.475Z,7.93
2023-04-15T01:09:46.125Z,6.45
2023-04-15T01:12:14.145Z,5.82
2023-04-15T01:14:41.124Z,6.70
2023-04-15T01:17:07.814Z,6.82
2023-04-15T01:19:34.777Z,7.60
2023-04-15T01:22:05.605Z,6.28
2023-04-15T01:24:33.191Z,7.35
2023-04-15T01:27:00.040Z,8.45
2023-04-15T01:29:27.460Z,5.55
2023-04-15T01:31:56.011Z,6.40
2023-04-15T01:34:23.033Z,6.45
2023-04-15T01:36:49.700Z,6.35
2023-04-15T01:39:16.403Z,8.10
2023-04-15T01:41:43.046Z,6.20
2023-04-15T01:44:10.111Z,6.03
2023-04-15T01:46:37.112Z,6.72
2023-04-15T01:49:03.879Z,5.97
2023-04-15T01:51:30.593Z,4.70
2023-04-15T01:53:57.243Z,6.47
2023-04-15T01:56:24.567Z,6.20
2023-04-15T01:58:51.722Z,5.93
2023-04-15T02:01:19.850Z,5.57
2023-04-15T02:03:47.738Z,6.10
2023-04-15T02:06:14.679Z,9.93
2023-04-15T02:08:41.475Z,7.82
2023-04-15T02:11:08.398Z,8.32
2023-04-15T02:13:35.274Z,7.43
2023-04-15T02:16:02.140Z,6.90
2023-04-15T02:18:28.867Z,6.65
2023-04-15T02:20:57.332Z,6.78
2023-04-15T02:23:24.490Z,6.00
2023-04-15T02:25:53.372Z,5.13
2023-04-15T02:30:52.445Z,6.40
2023-04-15T02:33:19.448Z,5.22
2023-04-15T02:35:46.597Z,5.05
2023-04-15T02:38:14.303Z,6.43
2023-04-15T02:40:41.005Z,5.93
2023-04-15T02:43:07.923Z,4.90
2023-04-15T02:45:34.919Z,5.32
2023-04-15T02:48:06.154Z,6.25
2023-04-15T02:50:33.150Z,3.83
2023-04-15T02:53:01.423Z,5.03
2023-04-15T02:55:28.813Z,6.43
2023-04-15T02:57:55.845Z,4.05
2023-04-15T03:00:25.454Z,5.60
2023-04-15T03:02:56.339Z,4.32
2023-04-15T03:05:25.439Z,5.57
2023-04-15T03:07:53.921Z,4.63
2023-04-15T03:10:21.313Z,4.50
2023-04-15T03:12:48.408Z,3.58
2023-04-15T03:15:15.628Z,4.80
2023-04-15T03:17:42.416Z,5.25
2023-04-15T03:20:10.457Z,5.75
2023-04-15T03:22:37.610Z,6.53
2023-04-15T03:25:04.730Z,4.10
2023-04-15T03:27:31.989Z,5.32
2023-04-15T03:29:58.830Z,4.68
2023-04-15T03:32:25.947Z,5.28
2023-04-15T03:34:52.750Z,5.13
2023-04-15T03:37:20.573Z,5.05
2023-04-15T03:39:47.238Z,4.10
2023-04-15T03:42:13.899Z,6.30
2023-04-15T03:44:40.650Z,4.53
2023-04-15T03:47:07.686Z,5.40
2023-04-15T03:49:34.383Z,6.35
2023-04-15T03:52:01.313Z,4.63
2023-04-15T03:54:28.467Z,5.82
2023-04-15T03:56:55.936Z,5.75
2023-04-15T03:59:22.969Z,4.45
2023-04-15T04:01:49.763Z,4.88
2023-04-15T04:04:16.947Z,4.68
2023-04-15T04:06:44.116Z,4.07
2023-04-15T04:09:10.844Z,4.72
2023-04-15T04:11:37.734Z,5.57
2023-04-15T04:14:04.507Z,5.82
2023-04-15T04:16:31.342Z,5.80
2023-04-15T04:18:57.994Z,5.22
2023-04-15T04:21:24.948Z,4.68
2023-04-15T04:23:51.734Z,6.05
2023-04-15T04:26:18.583Z,6.45
2023-04-15T04:28:45.555Z,6.93
2023-04-15T04:31:12.469Z,6.45
2023-04-15T04:33:39.284Z,7.55
2023-04-15T04:36:06.485Z,5.93
2023-04-15T04:38:33.313Z,5.45
2023-04-15T04:41:00.473Z,5.25
2023-04-15T04:43:27.580Z,5.75
2023-04-15T04:45:54.423Z,6.75
2023-04-15T04:48:21.269Z,7.20
2023-04-15T04:50:48.056Z,7.82
2023-04-15T04:53:15.360Z,7.70
2023-04-15T04:55:42.537Z,6.10
2023-04-15T04:58:09.287Z,7.05
2023-04-15T05:00:37.703Z,9.05
2023-04-15T05:03:04.647Z,7.50
2023-04-15T05:05:31.526Z,6.47
2023-04-15T05:07:58.266Z,6.38
2023-04-15T05:10:25.018Z,6.70
2023-04-15T05:12:52.585Z,5.95
2023-04-15T05:15:19.341Z,5.43
2023-04-15T05:17:46.076Z,6.97
2023-04-15T05:20:13.745Z,6.43
2023-04-15T05:22:40.962Z,6.55
2023-04-15T05:25:08.694Z,6.68
2023-04-15T05:27:35.610Z,7.63
2023-04-15T05:30:02.274Z,6.55
2023-04-15T05:32:29.208Z,8.75
2023-04-15T05:34:56.243Z,6.15
2023-04-15T05:37:22.888Z,6.80
2023-04-15T05:39:49.863Z,8.25
2023-04-15T05:42:17.033Z,7.68
2023-04-15T05:44:44.097Z,6.20
2023-04-15T05:47:10.941Z,6.78
2023-04-15T05:49:37.714Z,7.05
2023-04-15T05:52:04.613Z,7.35
2023-04-15T05:54:31.721Z,7.93
2023-04-15T05:56:59.039Z,8.27
2023-04-15T05:59:26.048Z,6.63
2023-04-15T06:01:53.076Z,8.90
2023-04-15T06:04:20.020Z,7.18
2023-04-15T06:06:47.168Z,9.68
2023-04-15T06:09:14.109Z,9.70
2023-04-15T06:11:41.376Z,9.50
2023-04-15T06:14:08.347Z,6.68
2023-04-15T06:16:36.715Z,6.68
2023-04-15T06:19:03.897Z,6.28
2023-04-15T06:21:31.462Z,6.55
2023-04-15T06:24:01.486Z,5.50
2023-04-15T06:26:28.249Z,6.63
2023-04-15T06:28:54.930Z,5.65
2023-04-15T06:31:21.693Z,7.32
2023-04-15T06:33:48.642Z,7.40
2023-04-15T06:36:15.560Z,6.13
2023-04-15T06:38:42.241Z,6.50
2023-04-15T06:41:08.990Z,7.20
2023-04-15T06:43:35.694Z,6.53
2023-04-15T06:46:02.451Z,6.00
2023-04-15T06:48:29.218Z,6.72
2023-04-15T06:50:56.351Z,8.07
2023-04-15T06:53:23.634Z,7.97
2023-04-15T06:55:50.371Z,6.78
2023-04-15T06:58:17.263Z,5.50
2023-04-15T07:00:44.891Z,6.90
2023-04-15T07:03:12.925Z,7.25
2023-04-15T07:05:39.706Z,7.00
2023-04-15T07:08:06.819Z,7.07
2023-04-15T07:10:34.452Z,6.93
2023-04-15T07:13:01.830Z,5.88
2023-04-15T07:15:28.851Z,5.53
2023-04-15T07:17:56.227Z,6.10
2023-04-15T07:20:23.232Z,5.22
2023-04-15T07:22:50.085Z,4.38
2023-04-15T07:25:17.758Z,7.38
2023-04-15T07:27:44.610Z,4.70
2023-04-15T07:30:12.535Z,5.63
2023-04-15T07:32:39.930Z,4.35
2023-04-15T07:35:06.985Z,5.93
2023-04-15T07:37:33.749Z,5.72
2023-04-15T07:40:00.488Z,5.55
2023-04-15T07:42:27.576Z,5.60
2023-04-15T07:44:54.274Z,6.28
2023-04-15T07:47:21.328Z,7.60
2023-04-15T07:49:48.068Z,7.38
2023-04-15T07:52:14.828Z,7.95
2023-04-15T07:54:41.695Z,6.72
2023-04-15T07:57:08.692Z,9.25
2023-04-15T07:59:35.402Z,7.47
2023-04-15T08:02:02.517Z,7.45
2023-04-15T08:04:29.376Z,7.32
2023-04-15T08:06:56.227Z,7.78
2023-04-15T08:09:22.884Z,6.88
2023-04-15T08:11:49.895Z,6.55
2023-04-15T08:14:16.816Z,7.68
2023-04-15T08:16:43.525Z,7.10
2023-04-15T08:19:10.180Z,7.88
2023-04-15T08:21:36.926Z,8.73
2023-04-15T08:24:03.924Z,7.28
2023-04-15T08:26:30.722Z,8.05
2023-04-15T08:28:57.650Z,9.50
2023-04-15T08:31:26.204Z,7.40
2023-04-15T08:33:54.452Z,7.13
2023-04-15T08:36:21.201Z,10.70
2023-04-15T08:38:48.105Z,7.38
2023-04-15T08:41:25.354Z,7.90
2023-04-15T08:43:54.684Z,8.32
2023-04-15T08:46:21.883Z,10.00
2023-04-15T08:48:49.308Z,7.88
2023-04-15T08:51:17.715Z,9.60
2023-04-15T08:53:46.479Z,8.27
2023-04-15T08:56:14.234Z,8.93
2023-04-15T08:58:41.561Z,8.20
2023-04-15T09:01:08.371Z,8.90
2023-04-15T09:03:35.125Z,9.65
2023-04-15T09:06:02.208Z,7.97
2023-04-15T09:08:28.886Z,8.77
2023-04-15T09:10:55.794Z,9.50
2023-04-15T09:13:22.892Z,8.23
2023-04-15T09:15:50.109Z,11.40
2023-04-15T09:18:28.763Z,8.35
2023-04-15T09:20:55.554Z,8.80
2023-04-15T09:23:22.356Z,10.85
2023-04-15T09:25:49.611Z,7.75
2023-04-15T09:28:16.411Z,11.25
2023-04-15T09:30:46.223Z,10.15
2023-04-15T09:33:14.915Z,11.05
2023-04-15T09:35:42.337Z,9.05
2023-04-15T09:38:10.019Z,9.25
2023-04-15T09:40:41.224Z,10.20
2023-04-15T09:43:09.258Z,9.98
2023-04-15T09:45:36.403Z,11.75
2023-04-15T09:48:22.470Z,9.40
2023-04-15T09:50:49.696Z,10.88
2023-04-15T09:53:18.279Z,9.70
2023-04-15T09:55:51.507Z,9.75
2023-04-15T09:58:22.631Z,7.72
2023-04-15T10:00:50.531Z,10.07
2023-04-15T10:03:36.894Z,7.03
2023-04-15T10:06:05.589Z,8.55
2023-04-15T10:08:33.787Z,10.57
2023-04-15T10:11:03.814Z,7.53
2023-04-15T10:13:33.301Z,10.23
2023-04-15T10:18:35.911Z,6.10
2023-04-15T10:21:02.608Z,7.28
2023-04-15T10:23:29.503Z,7.43
2023-04-15T10:25:56.417Z,6.63
2023-04-15T10:28:23.093Z,6.60
2023-04-15T10:30:50.004Z,5.93
2023-04-15T10:33:21.690Z,6.57
2023-04-15T10:35:50.086Z,6.63
2023-04-15T10:38:37.375Z,7.65
2023-04-15T10:41:21.591Z,7.90
2023-04-15T10:43:56.281Z,6.65
2023-04-15T10:46:46.669Z,9.38
2023-04-15T10:49:33.812Z,8.48
2023-04-15T10:52:00.986Z,6.60
2023-04-15T10:54:27.780Z,6.40
2023-04-15T10:57:01.512Z,8.93
2023-04-15T10:59:31.915Z,9.18
2023-04-15T11:02:02.840Z,8.40
2023-04-15T11:04:51.680Z,6.70
2023-04-15T11:07:46.747Z,6.95
2023-04-15T11:10:26.016Z,9.35
2023-04-15T11:13:00.316Z,7.95
2023-04-15T11:15:46.032Z,9.32
2023-04-15T11:18:19.424Z,9.50
2023-04-15T11:20:47.831Z,6.30
2023-04-15T11:23:28.829Z,7.10
2023-04-15T11:25:56.596Z,6.32
2023-04-15T11:28:25.352Z,5.32
2023-04-15T11:30:52.044Z,8.23
2023-04-15T11:33:18.799Z,6.07
2023-04-15T11:35:45.789Z,8.52
2023-04-15T11:40:40.963Z,6.03
2023-04-15T11:43:08.697Z,7.07
2023-04-15T11:45:36.528Z,7.53
2023-04-15T11:48:10.466Z,7.45
2023-04-15T11:50:37.794Z,7.40
2023-04-15T11:53:08.175Z,8.15
2023-04-15T11:55:51.942Z,7.05
2023-04-15T11:58:22.624Z,8.80
2023-04-15T12:00:54.176Z,7.10
2023-04-15T12:03:28.821Z,8.25
2023-04-15T12:06:08.611Z,11.70
2023-04-15T12:08:57.447Z,7.68
2023-04-15T12:11:27.201Z,9.25
2023-04-15T12:13:55.162Z,9.10
2023-04-15T12:16:22.166Z,6.90
2023-04-15T12:18:52.918Z,6.75
2023-04-15T12:21:28.099Z,8.77
2023-04-15T12:23:56.008Z,7.72
2023-04-15T12:26:33.944Z,7.07
2023-04-15T12:29:10.926Z,8.90
2023-04-15T12:31:38.121Z,8.27
2023-04-15T12:34:07.782Z,7.88
2023-04-15T12:36:37.198Z,6.70
2023-04-15T12:39:05.022Z,7.80
2023-04-15T12:41:32.263Z,12.40
2023-04-15T12:43:59.129Z,9.25
2023-04-15T12:46:26.470Z,7.63
2023-04-15T12:48:53.367Z,6.75
2023-04-15T12:51:21.774Z,7.63
2023-04-15T12:53:49.710Z,9.67
2023-04-15T12:56:19.844Z,6.13
2023-04-15T12:58:46.918Z,7.20
2023-04-15T13:01:13.756Z,7.88
2023-04-15T13:03:40.838Z,10.95
2023-04-15T13:06:08.199Z,6.00
2023-04-15T13:08:36.862Z,6.05
2023-04-15T13:11:05.875Z,7.18
2023-04-15T13:13:33.151Z,8.20
2023-04-15T13:16:00.113Z,7.82
2023-04-15T13:18:26.852Z,8.48
2023-04-15T13:20:54.589Z,7.53
2023-04-15T13:23:21.936Z,8.32
2023-04-15T13:25:48.765Z,7.68
2023-04-15T13:28:15.732Z,8.88
2023-04-15T13:30:44.060Z,8.10
2023-04-15T13:33:11.280Z,10.90
2023-04-15T13:35:38.322Z,11.57
2023-04-15T13:38:05.350Z,8.27
2023-04-15T13:40:32.094Z,7.18
2023-04-15T13:42:59.929Z,8.73
2023-04-15T13:45:27.004Z,7.10
2023-04-15T13:47:54.652Z,9.23
2023-04-15T13:50:21.503Z,8.18
2023-04-15T13:52:48.192Z,9.07
2023-04-15T13:55:19.329Z,9.05
2023-04-15T13:57:48.251Z,9.73
2023-04-15T14:00:15.542Z,6.80
2023-04-15T14:02:42.608Z,6.63
2023-04-15T14:05:10.366Z,5.10
2023-04-15T14:07:37.586Z,10.95
2023-04-15T14:10:04.762Z,7.13
2023-04-15T14:12:31.646Z,7.22
2023-04-15T14:14:58.424Z,7.65
2023-04-15T14:17:25.186Z,8.75
2023-04-15T14:19:52.152Z,6.80
2023-04-15T14:22:19.020Z,7.18
2023-04-15T14:24:45.887Z,8.07
2023-04-15T14:27:12.642Z,9.73
2023-04-15T14:29:39.440Z,9.43
2023-04-15T14:32:12.109Z,9.07
2023-04-15T14:34:40.053Z,5.65
2023-04-15T14:37:06.950Z,6.97
2023-04-15T14:39:33.678Z,8.30
2023-04-15T14:42:00.357Z,6.38
2023-04-15T14:44:27.114Z,7.63
2023-04-15T14:46:54.617Z,6.35
2023-04-15T14:49:21.447Z,7.43
2023-04-15T14:51:48.180Z,9.23
2023-04-15T14:54:15.386Z,6.22
2023-04-15T14:56:42.127Z,6.35
2023-04-15T14:59:08.895Z,6.03
2023-04-15T15:01:35.694Z,6.07
2023-04-15T15:04:02.574Z,8.25
2023-04-15T15:06:29.370Z,10.05
2023-04-15T15:08:56.362Z,8.95
2023-04-15T15:11:23.052Z,6.82
2023-04-15T15:13:49.774Z,7.32
2023-04-15T15:16:16.563Z,9.13
2023-04-15T15:18:43.579Z,5.70
2023-04-15T15:21:10.886Z,7.38
2023-04-15T15:23:37.583Z,6.30
2023-04-15T15:26:05.270Z,6.32
2023-04-15T15:28:31.925Z,11.65
2023-04-15T15:30:58.729Z,7.68
2023-04-15T15:33:26.809Z,6.50
2023-04-15T15:38:21.929Z,7.15
2023-04-15T15:40:48.632Z,5.47
2023-04-15T15:43:15.359Z,7.70
2023-04-15T15:45:42.063Z,7.57
2023-04-15T15:48:08.838Z,9.63
2023-04-15T15:50:35.830Z,6.45
2023-04-15T15:53:02.512Z,8.55
2023-04-15T15:55:29.229Z,9.60
2023-04-15T15:57:55.964Z,8.43
2023-04-15T16:00:23.141Z,8.05
2023-04-15T16:03:06.228Z,9.18
2023-04-15T16:05:33.690Z,7.65
2023-04-15T16:08:00.664Z,13.13
2023-04-15T16:10:27.663Z,11.85
2023-04-15T16:12:54.425Z,12.98
2023-04-15T16:15:21.991Z,7.68
2023-04-15T16:17:48.760Z,8.50
2023-04-15T16:20:15.612Z,7.65
2023-04-15T16:22:42.315Z,11.63
2023-04-15T16:25:09.404Z,7.72
2023-04-15T16:27:54.109Z,11.32
2023-04-15T16:30:23.417Z,12.70
2023-04-15T16:32:50.167Z,8.45
2023-04-15T16:35:16.998Z,9.55
2023-04-15T16:37:43.702Z,7.78
2023-04-15T16:40:10.824Z,8.07
2023-04-15T16:42:37.507Z,12.05
2023-04-15T16:45:04.576Z,6.45
2023-04-15T16:47:31.451Z,7.95
2023-04-15T16:49:58.106Z,10.15
2023-04-15T16:52:24.792Z,9.15
2023-04-15T16:54:51.490Z,7.75
2023-04-15T16:57:18.277Z,7.57
2023-04-15T16:59:45.021Z,8.82
2023-04-15T17:02:12.906Z,12.95
2023-04-15T17:04:39.967Z,5.57
2023-04-15T17:07:06.882Z,7.85
2023-04-15T17:09:33.562Z,6.85
2023-04-15T17:12:01.295Z,9.82
2023-04-15T17:14:28.903Z,8.60
2023-04-15T17:16:55.900Z,8.32
2023-04-15T17:19:22.704Z,9.73
2023-04-15T17:21:51.787Z,12.68
2023-04-15T17:24:19.618Z,8.30
2023-04-15T17:26:47.089Z,11.57
2023-04-15T17:29:13.851Z,5.65
2023-04-15T17:31:40.678Z,10.10
2023-04-15T17:34:09.815Z,12.25
2023-04-15T17:36:38.509Z,8.15
2023-04-15T17:39:05.289Z,9.27
2023-04-15T17:41:32.145Z,9.75
2023-04-15T17:43:59.012Z,10.88
2023-04-15T17:46:26.253Z,10.52
2023-04-15T17:48:52.941Z,7.70
2023-04-15T17:51:19.643Z,7.10
2023-04-15T17:53:46.534Z,9.40
2023-04-15T17:56:13.364Z,7.22
2023-04-15T17:58:40.072Z,9.68
2023-04-15T18:01:06.871Z,6.70
2023-04-15T18:03:33.704Z,13.55
2023-04-15T18:06:01.347Z,10.23
2023-04-15T18:08:28.958Z,8.95
2023-04-15T18:10:56.415Z,11.68
2023-04-15T18:13:23.568Z,8.68
2023-04-15T18:15:51.400Z,8.98
2023-04-15T18:18:18.187Z,8.73
2023-04-15T18:20:44.950Z,9.50
2023-04-15T18:23:11.760Z,9.93
2023-04-15T18:25:38.536Z,7.00
2023-04-15T18:28:05.849Z,6.25
2023-04-15T18:30:32.547Z,12.85
2023-04-15T18:32:59.437Z,11.40
2023-04-15T18:35:26.219Z,8.52
2023-04-15T18:37:53.271Z,7.32
2023-04-15T18:40:20.902Z,7.97
2023-04-15T18:42:49.070Z,7.95
2023-04-15T18:45:16.318Z,6.70
2023-04-15T18:47:43.182Z,6.88
2023-04-15T18:50:10.066Z,8.65
2023-04-15T18:52:37.036Z,9.80
2023-04-15T18:55:04.091Z,7.15
2023-04-15T18:57:34.945Z,6.43
2023-04-15T19:00:04.398Z,5.60
2023-04-15T19:02:31.235Z,6.30
2023-04-15T19:04:58.104Z,7.05
2023-04-15T19:07:24.932Z,5.15
2023-04-15T19:09:51.739Z,10.07
2023-04-15T19:12:18.483Z,9.45
2023-04-15T19:14:45.232Z,6.00
2023-04-15T19:17:12.103Z,7.82
2023-04-15T19:19:38.846Z,8.73
2023-04-15T19:22:06.128Z,6.80
2023-04-15T19:24:33.565Z,7.35
2023-04-15T19:27:01.491Z,7.93
2023-04-15T19:29:31.139Z,7.20
2023-04-15T19:34:25.059Z,9.38
2023-04-15T19:36:51.813Z,8.98
2023-04-15T19:39:18.816Z,10.10
2023-04-15T19:41:45.895Z,9.52
2023-04-15T19:44:13.104Z,7.45
2023-04-15T19:46:44.734Z,6.57
2023-04-15T19:49:11.616Z,6.40
2023-04-15T19:51:38.441Z,7.38
2023-04-15T19:54:05.436Z,11.43
2023-04-15T19:56:34.265Z,13.02
2023-04-15T19:59:02.211Z,9.35
2023-04-15T20:01:29.109Z,8.13
2023-04-15T20:03:56.250Z,7.60
2023-04-15T20:06:23.195Z,13.80
2023-04-15T20:08:50.102Z,10.63
2023-04-15T20:11:16.933Z,10.70
2023-04-15T20:13:43.652Z,8.38
2023-04-15T20:16:11.675Z,8.48
2023-04-15T20:18:38.416Z,9.98
2023-04-15T20:21:05.067Z,8.52
2023-04-15T20:23:32.377Z,9.18
2023-04-15T20:25:59.115Z,8.48
2023-04-15T20:28:27.477Z,13.30
2023-04-15T20:30:54.120Z,9.60
2023-04-15T20:33:22.436Z,11.07
2023-04-15T20:35:49.202Z,11.43
2023-04-15T20:38:16.529Z,12.45
2023-04-15T20:40:43.638Z,13.93
2023-04-15T20:43:10.481Z,10.85
2023-04-15T20:45:37.429Z,11.45
2023-04-15T20:48:05.356Z,11.30
2023-04-15T20:50:32.501Z,13.07
2023-04-15T20:52:59.196Z,12.55
2023-04-15T20:55:27.939Z,20.40
2023-04-15T20:57:56.950Z,10.65
2023-04-15T21:00:24.437Z,12.43
2023-04-15T21:02:51.737Z,10.85
2023-04-15T21:05:18.779Z,11.90
2023-04-15T21:07:46.961Z,12.75
2023-04-15T21:10:13.880Z,13.10
2023-04-15T21:12:41.182Z,14.18
2023-04-15T21:15:09.280Z,10.55
2023-04-15T21:17:36.206Z,13.25
2023-04-15T21:20:03.459Z,12.05
2023-04-15T21:22:30.225Z,14.18
2023-04-15T21:24:57.092Z,14.55
2023-04-15T21:27:25.616Z,14.07
2023-04-15T21:29:52.408Z,13.70
2023-04-15T21:32:19.185Z,17.13
2023-04-15T21:34:45.941Z,13.27
2023-04-15T21:37:12.676Z,13.73
2023-04-15T21:39:39.764Z,17.33
2023-04-15T21:42:06.530Z,16.50
2023-04-15T21:44:33.255Z,18.23
2023-04-15T21:47:00.131Z,18.73
2023-04-15T21:49:27.008Z,14.10
2023-04-15T21:51:53.810Z,16.13
2023-04-15T21:54:20.667Z,17.23
2023-04-15T21:56:49.657Z,20.58
2023-04-15T21:59:16.338Z,20.75
2023-04-15T22:01:43.079Z,19.55
2023-04-15T22:04:10.983Z,18.60
2023-04-15T22:06:38.276Z,21.70
2023-04-15T22:09:04.980Z,19.80
2023-04-15T22:11:32.284Z,20.05
2023-04-15T22:13:59.141Z,16.55
2023-04-15T22:16:26.453Z,18.17
2023-04-15T22:18:53.547Z,15.95
2023-04-15T22:21:20.281Z,16.30
2023-04-15T22:23:47.682Z,18.52
2023-04-15T22:26:14.929Z,20.85
2023-04-15T22:28:41.924Z,18.92
2023-04-15T22:31:08.785Z,23.10
2023-04-15T22:33:35.542Z,20.90
2023-04-15T22:36:02.207Z,23.30
2023-04-15T22:38:28.871Z,18.60
2023-04-15T22:40:56.170Z,19.73
2023-04-15T22:43:23.452Z,21.00
2023-04-15T22:45:50.757Z,21.38
2023-04-15T22:48:18.317Z,16.58
2023-04-15T22:50:45.495Z,19.27
2023-04-15T22:53:12.194Z,18.65
2023-04-15T22:55:38.809Z,17.23
2023-04-15T22:58:06.252Z,21.25
2023-04-15T23:00:33.310Z,18.80
2023-04-15T23:03:00.352Z,17.33
2023-04-15T23:05:27.673Z,21.58
2023-04-15T23:07:54.470Z,18.00
2023-04-15T23:10:21.247Z,22.38
2023-04-15T23:12:47.935Z,20.17
2023-04-15T23:15:14.744Z,19.95
2023-04-15T23:17:42.469Z,18.80
2023-04-15T23:20:09.686Z,14.55
2023-04-15T23:22:40.345Z,18.80
2023-04-15T23:25:07.260Z,21.42
2023-04-15T23:27:34.247Z,16.73
2023-04-15T23:30:00.935Z,19.80
2023-04-15T23:32:27.716Z,18.55
2023-04-15T23:34:54.521Z,17.17
2023-04-15T23:37:21.290Z,17.65
2023-04-15T23:39:47.970Z,17.27
2023-04-15T23:42:14.761Z,24.05
2023-04-15T23:44:41.490Z,18.15
2023-04-15T23:47:08.501Z,19.98
2023-04-15T23:49:36.638Z,19.50
2023-04-15T23:52:03.419Z,17.90
2023-04-15T23:54:30.337Z,16.08
2023-04-15T23:56:57.042Z,19.75
2023-04-15T23:59:23.762Z,19.70
